Time;durP1;ratioP1;P1;durP2;ratioP2;P2;SDS_P1;SDS_P2;PMS_P1;PMS_P2;Temp;Humidity;BMP_temperature;BMP_pressure;BME280_temperature;BME280_humidity;BME280_pressure;Samples;Min_cycle;Max_cycle;Signal;HPM_P1;HPM_P2
2022/04/15 00:01:21;;;;;;;;;;;;;;;;;;5046590;28;19963;-59
2022/04/15 00:03:47;;;;;;;;;;;;;;;;;;5049516;28;19928;-59
2022/04/15 00:06:13;;;;;;;;;;;;;;;;;;5048757;28;19933;-60
2022/04/15 00:08:40;;;;;;;;;;;;;;;;;;5052687;28;19932;-61
2022/04/15 00:11:07;;;;;;;;;;;;;;;;;;5048293;28;20377;-60
2022/04/15 00:13:33;;;;;;;;;;;;;;;;;;5048887;28;19948;-60
2022/04/15 00:15:59;;;;;;;;;;;;;;;;;;5045809;28;20020;-60
2022/04/15 00:18:25;;;;;;;;;;;;;;;;;;5049394;28;20378;-60
2022/04/15 00:20:52;;;;;;;;;;;;;;;;;;5047420;28;19970;-60
2022/04/15 00:23:20;;;;;;;;;;;;;;;;;;5050018;28;19972;-61
2022/04/15 00:25:46;;;;;;;;;;;;;;;;;;5048742;28;20278;-61
2022/04/15 00:28:13;;;;;;;;;;;;;;;;;;4699145;28;10000576;-60
2022/04/15 00:30:39;;;;;;;;;;;;;;;;;;5044554;28;20314;-60
2022/04/15 00:33:05;;;;;;;;;;;;;;;;;;5048003;28;19931;-60
2022/04/15 00:35:31;;;;;;;;;;;;;;;;;;5048816;28;19925;-63
2022/04/15 00:37:57;;;;;;;;;;;;;;;;;;5048221;28;19924;-63
2022/04/15 00:40:23;;;;;;;;;;;;;;;;;;5050953;28;19925;-62
2022/04/15 00:42:49;;;;;;;;;;;;;;;;;;5050848;28;19924;-62
2022/04/15 00:45:16;;;;;;;;;;;;;;;;;;5054013;28;19925;-63
2022/04/15 00:47:42;;;;;;;;;;;;;;;;;;5049975;28;19925;-62
2022/04/15 00:50:08;;;;;;;;;;;;;;;;;;5059009;28;19929;-65
2022/04/15 00:52:34;;;;;;;;;;;;;;;;;;5051552;28;19928;-66
2022/04/15 00:55:01;;;;;;;;;;;;;;;;;;5051329;28;19960;-66
2022/04/15 00:57:27;;;;;;;;;;;;;;;;;;5052668;28;19925;-61
2022/04/15 00:59:53;;;;;;;;;;;;;;;;;;5051423;28;19924;-61
2022/04/15 01:02:19;;;;;;;;;;;;;;;;;;5060225;28;19935;-61
2022/04/15 01:04:45;;;;;;;;;;;;;;;;;;5047704;28;19924;-63
2022/04/15 01:07:11;;;;;;;;;;;;;;;;;;5051085;28;19932;-62
2022/04/15 01:09:42;;;;;;;;;;;;;;;;;;5051992;28;19925;-61
2022/04/15 01:12:09;;;;;;;;;;;;;;;;;;5049431;28;19971;-63
2022/04/15 01:14:35;;;;;;;;;;;;;;;;;;5049724;28;19960;-62
2022/04/15 01:17:01;;;;;;;;;;;;;;;;;;5050779;28;19925;-64
2022/04/15 01:19:27;;;;;;;;;;;;;;;;;;5050959;28;19932;-64
2022/04/15 01:21:53;;;;;;;;;;;;;;;;;;5047172;28;19929;-62
2022/04/15 01:24:20;;;;;;;;;;;;;;;;;;5048417;28;19936;-62
2022/04/15 01:26:46;;;;;;;;;;;;;;;;;;5048054;28;19935;-62
2022/04/15 01:29:12;;;;;;;;;;;;;;;;;;5048609;28;19925;-63
2022/04/15 01:31:38;;;;;;;;;;;;;;;;;;5048826;28;19931;-65
2022/04/15 01:34:04;;;;;;;;;;;;;;;;;;5048924;28;19928;-65
2022/04/15 01:36:30;;;;;;;;;;;;;;;;;;5045376;28;19967;-64
2022/04/15 01:38:57;;;;;;;;;;;;;;;;;;5050672;28;19924;-64
2022/04/15 01:41:23;;;;;;;;;;;;;;;;;;5048019;28;19929;-65
2022/04/15 01:43:49;;;;;;;;;;;;;;;;;;5050022;28;19932;-63
2022/04/15 01:46:15;;;;;;;;;;;;;;;;;;5049109;28;19925;-62
2022/04/15 01:48:41;;;;;;;;;;;;;;;;;;5047564;28;19932;-63
2022/04/15 01:51:08;;;;;;;;;;;;;;;;;;5046188;28;19933;-65
2022/04/15 01:53:34;;;;;;;;;;;;;;;;;;5049943;28;19929;-65
2022/04/15 01:56:00;;;;;;;;;;;;;;;;;;5052315;28;19928;-64
2022/04/15 01:58:26;;;;;;;;;;;;;;;;;;5048851;28;19925;-64
2022/04/15 02:00:52;;;;;;;;;;;;;;;;;;5055472;28;19936;-63
2022/04/15 02:03:18;;;;;;;;;;;;;;;;;;5048235;28;20297;-62
2022/04/15 02:05:44;;;;;;;;;;;;;;;;;;5046850;28;19925;-61
2022/04/15 02:08:11;;;;;;;;;;;;;;;;;;5048728;28;19931;-61
2022/04/15 02:10:37;;;;;;;;;;;;;;;;;;5048545;28;19939;-62
2022/04/15 02:13:03;;;;;;;;;;;;;;;;;;5047094;28;19925;-62
2022/04/15 02:15:29;;;;;;;;;;;;;;;;;;5046487;28;20477;-60
2022/04/15 02:17:55;;;;;;;;;;;;;;;;;;5048726;28;20421;-61
2022/04/15 02:20:21;;;;;;;;;;;;;;;;;;5047551;28;19929;-65
2022/04/15 02:22:47;;;;;;;;;;;;;;;;;;5048304;28;19936;-61
2022/04/15 02:25:14;;;;;;;;;;;;;;;;;;5047887;28;19935;-62
2022/04/15 02:27:40;;;;;;;;;;;;;;;;;;5072935;22;19947;-65
2022/04/15 02:30:06;;;;;;;;;;;;;;;;;;5069107;28;19924;-65
2022/04/15 02:32:32;;;;;;;;;;;;;;;;;;5069245;28;19931;-65
2022/04/15 02:34:58;;;;;;;;;;;;;;;;;;5068526;28;19924;-63
2022/04/15 02:37:24;;;;;;;;;;;;;;;;;;5063911;28;19932;-63
2022/04/15 02:39:51;;;;;;;;;;;;;;;;;;5068297;28;19924;-65
2022/04/15 02:42:17;;;;;;;;;;;;;;;;;;5068353;28;19970;-65
2022/04/15 02:44:43;;;;;;;;;;;;;;;;;;5068415;28;20018;-65
2022/04/15 02:47:09;;;;;;;;;;;;;;;;;;5077293;28;19924;-65
2022/04/15 02:49:35;;;;;;;;;;;;;;;;;;5085373;28;19925;-70
2022/04/15 02:52:02;;;;;;;;;;;;;;;;;;5082588;28;19959;-63
2022/04/15 02:54:28;;;;;;;;;;;;;;;;;;5090322;28;19943;-63
2022/04/15 02:56:54;;;;;;;;;;;;;;;;;;5089986;28;19932;-63
2022/04/15 02:59:20;;;;;;;;;;;;;;;;;;5090357;28;19913;-62
2022/04/15 03:01:48;;;;;;;;;;;;;;;;;;5089064;28;19922;-64
2022/04/15 03:04:14;;;;;;;;;;;;;;;;;;5088943;28;19928;-62
2022/04/15 03:06:40;;;;;;;;;;;;;;;;;;5090030;28;19929;-61
2022/04/15 03:09:06;;;;;;;;;;;;;;;;;;5087515;28;19924;-63
2022/04/15 03:11:33;;;;;;;;;;;;;;;;;;5090155;28;19913;-63
2022/04/15 03:13:59;;;;;;;;;;;;;;;;;;5072122;28;19925;-63
2022/04/15 03:16:25;;;;;;;;;;;;;;;;;;5075108;28;20027;-60
2022/04/15 03:18:51;;;;;;;;;;;;;;;;;;5078409;28;19925;-60
2022/04/15 03:21:18;;;;;;;;;;;;;;;;;;5068907;28;19951;-59
2022/04/15 03:23:44;;;;;;;;;;;;;;;;;;5064667;28;19932;-59
2022/04/15 03:26:10;;;;;;;;;;;;;;;;;;5062029;28;19959;-59
2022/04/15 03:28:37;;;;;;;;;;;;;;;;;;5066985;28;19939;-59
2022/04/15 03:31:03;;;;;;;;;;;;;;;;;;5063047;28;19964;-59
2022/04/15 03:33:29;;;;;;;;;;;;;;;;;;5064451;28;19925;-59
2022/04/15 03:35:55;;;;;;;;;;;;;;;;;;5066718;28;19936;-62
2022/04/15 03:38:21;;;;;;;;;;;;;;;;;;5070206;28;19932;-63
2022/04/15 03:40:48;;;;;;;;;;;;;;;;;;5068169;28;19924;-64
2022/04/15 03:43:14;;;;;;;;;;;;;;;;;;5069611;28;20195;-64
2022/04/15 03:45:40;;;;;;;;;;;;;;;;;;5067681;28;19928;-63
2022/04/15 03:48:06;;;;;;;;;;;;;;;;;;5068177;28;19925;-60
2022/04/15 03:50:33;;;;;;;;;;;;;;;;;;5068853;28;19931;-60
2022/04/15 03:52:59;;;;;;;;;;;;;;;;;;5069127;28;19939;-59
2022/04/15 03:55:25;;;;;;;;;;;;;;;;;;5069004;28;20291;-61
2022/04/15 03:57:51;;;;;;;;;;;;;;;;;;5065373;28;19955;-59
2022/04/15 04:00:18;;;;;;;;;;;;;;;;;;5070642;28;19924;-61
2022/04/15 04:02:44;;;;;;;;;;;;;;;;;;5072029;28;19924;-61
2022/04/15 04:05:10;;;;;;;;;;;;;;;;;;5067617;28;20336;-60
2022/04/15 04:07:37;;;;;;;;;;;;;;;;;;5072555;28;20070;-61
2022/04/15 04:10:03;;;;;;;;;;;;;;;;;;5064144;28;19928;-60
2022/04/15 04:12:29;;;;;;;;;;;;;;;;;;5068247;28;19939;-61
2022/04/15 04:14:56;;;;;;;;;;;;;;;;;;5067061;28;19929;-63
2022/04/15 04:17:22;;;;;;;;;;;;;;;;;;5067988;28;19935;-64
2022/04/15 04:19:48;;;;;;;;;;;;;;;;;;5064185;28;19970;-64
2022/04/15 04:22:14;;;;;;;;;;;;;;;;;;5064953;28;20380;-61
2022/04/15 04:24:40;;;;;;;;;;;;;;;;;;5070829;28;20396;-59
2022/04/15 04:27:06;;;;;;;;;;;;;;;;;;5068267;28;20300;-60
2022/04/15 04:29:32;;;;;;;;;;;;;;;;;;5071815;28;19925;-60
2022/04/15 04:31:59;;;;;;;;;;;;;;;;;;5071436;28;19928;-60
2022/04/15 04:34:25;;;;;;;;;;;;;;;;;;5069687;28;19931;-61
2022/04/15 04:36:51;;;;;;;;;;;;;;;;;;5070803;28;19947;-61
2022/04/15 04:39:17;;;;;;;;;;;;;;;;;;5071213;28;19932;-61
2022/04/15 04:41:43;;;;;;;;;;;;;;;;;;5068942;28;20589;-60
2022/04/15 04:44:09;;;;;;;;;;;;;;;;;;5070172;28;19925;-63
2022/04/15 04:46:36;;;;;;;;;;;;;;;;;;5066142;28;19928;-62
2022/04/15 04:49:02;;;;;;;;;;;;;;;;;;5062749;28;20278;-63
2022/04/15 04:51:28;;;;;;;;;;;;;;;;;;5071409;28;19925;-63
2022/04/15 04:53:54;;;;;;;;;;;;;;;;;;5071208;28;19947;-63
2022/04/15 04:56:20;;;;;;;;;;;;;;;;;;5069393;28;20147;-62
2022/04/15 04:58:47;;;;;;;;;;;;;;;;;;5067632;28;19932;-61
2022/04/15 05:01:13;;;;;;;;;;;;;;;;;;5067938;28;20010;-61
2022/04/15 05:03:39;;;;;;;;;;;;;;;;;;5067345;28;19932;-61
2022/04/15 05:06:05;;;;;;;;;;;;;;;;;;5067643;28;19933;-60
2022/04/15 05:08:31;;;;;;;;;;;;;;;;;;5069795;28;19928;-58
2022/04/15 05:10:57;;;;;;;;;;;;;;;;;;5067301;28;19925;-57
2022/04/15 05:13:23;;;;;;;;;;;;;;;;;;5065533;28;19924;-59
2022/04/15 05:15:50;;;;;;;;;;;;;;;;;;5067558;28;20412;-58
2022/04/15 05:18:16;;;;;;;;;;;;;;;;;;5062738;28;20030;-58
2022/04/15 05:20:42;;;;;;;;;;;;;;;;;;5068629;28;20403;-58
2022/04/15 05:23:08;;;;;;;;;;;;;;;;;;5070172;28;19944;-57
2022/04/15 05:25:34;;;;;;;;;;;;;;;;;;5068798;28;19939;-56
2022/04/15 05:28:02;;;;;;;;;;;;;;;;;;5069391;28;19935;-56
2022/04/15 05:30:28;;;;;;;;;;;;;;;;;;5063330;28;20351;-56
2022/04/15 05:32:54;;;;;;;;;;;;;;;;;;5069430;28;20289;-62
2022/04/15 05:35:20;;;;;;;;;;;;;;;;;;5068676;28;19995;-62
2022/04/15 05:37:47;;;;;;;;;;;;;;;;;;5071210;28;20176;-62
2022/04/15 05:40:13;;;;;;;;;;;;;;;;;;5068821;28;19961;-63
2022/04/15 05:42:39;;;;;;;;;;;;;;;;;;5069804;28;20396;-62
2022/04/15 05:45:05;;;;;;;;;;;;;;;;;;5069219;28;19932;-61
2022/04/15 05:47:31;;;;;;;;;;;;;;;;;;5069828;28;19925;-67
2022/04/15 05:49:57;;;;;;;;;;;;;;;;;;5066642;28;19948;-65
2022/04/15 05:52:24;;;;;;;;;;;;;;;;;;5069616;28;20321;-63
2022/04/15 05:54:50;;;;;;;;;;;;;;;;;;5069044;28;19940;-65
2022/04/15 05:57:16;;;;;;;;;;;;;;;;;;5069305;28;19928;-65
2022/04/15 05:59:42;;;;;;;;;;;;;;;;;;5067531;28;19932;-63
2022/04/15 06:02:08;;;;;;;;;;;;;;;;;;5063004;28;20078;-63
2022/04/15 06:04:34;;;;;;;;;;;;;;;;;;5069950;28;19931;-62
2022/04/15 06:07:02;;;;;;;;;;;;;;;;;;5067666;28;20476;-64
2022/04/15 06:09:28;;;;;;;;;;;;;;;;;;5071100;28;20151;-63
2022/04/15 06:11:56;;;;;;;;;;;;;;;;;;5065072;28;19924;-63
2022/04/15 06:14:22;;;;;;;;;;;;;;;;;;5066355;28;20019;-63
2022/04/15 06:16:49;;;;;;;;;;;;;;;;;;5065116;28;20396;-63
2022/04/15 06:19:16;;;;;;;;;;;;;;;;;;5069241;28;19937;-62
2022/04/15 06:21:42;;;;;;;;;;;;;;;;;;5067575;28;19925;-63
2022/04/15 06:24:09;;;;;;;;;;;;;;;;;;5060201;28;19939;-63
2022/04/15 06:26:35;;;;;;;;;;;;;;;;;;5059467;28;19929;-63
2022/04/15 06:29:01;;;;;;;;;;;;;;;;;;5069623;28;19924;-63
2022/04/15 06:31:27;;;;;;;;;;;;;;;;;;5068632;28;19931;-63
2022/04/15 06:33:54;;;;;;;;;;;;;;;;;;5066340;28;19933;-62
2022/04/15 06:36:20;;;;;;;;;;;;;;;;;;5066508;28;19924;-62
2022/04/15 06:38:46;;;;;;;;;;;;;;;;;;5068775;28;19924;-62
2022/04/15 06:41:12;;;;;;;;;;;;;;;;;;5065046;28;20288;-62
2022/04/15 06:43:38;;;;;;;;;;;;;;;;;;5066521;28;19947;-60
2022/04/15 06:46:05;;;;;;;;;;;;;;;;;;5066188;28;19968;-60
2022/04/15 06:48:31;;;;;;;;;;;;;;;;;;5068376;28;19928;-63
2022/04/15 06:50:57;;;;;;;;;;;;;;;;;;5066312;28;19936;-64
2022/04/15 06:53:23;;;;;;;;;;;;;;;;;;5064520;28;19932;-64
2022/04/15 06:55:49;;;;;;;;;;;;;;;;;;5065600;28;20416;-64
2022/04/15 06:58:16;;;;;;;;;;;;;;;;;;5068252;28;20298;-64
2022/04/15 07:00:42;;;;;;;;;;;;;;;;;;5064325;28;20390;-64
2022/04/15 07:03:12;;;;;;;;;;;;;;;;;;5067173;28;20011;-65
2022/04/15 07:05:38;;;;;;;;;;;;;;;;;;5066951;28;19924;-65
2022/04/15 07:08:04;;;;;;;;;;;;;;;;;;5067723;28;19925;-65
2022/04/15 07:10:30;;;;;;;;;;;;;;;;;;5064818;28;19936;-64
2022/04/15 07:12:57;;;;;;;;;;;;;;;;;;5064817;28;20244;-64
2022/04/15 07:15:24;;;;;;;;;;;;;;;;;;5064061;28;20297;-63
2022/04/15 07:17:50;;;;;;;;;;;;;;;;;;5062755;28;19924;-64
2022/04/15 07:20:16;;;;;;;;;;;;;;;;;;5064238;28;19939;-63
2022/04/15 07:22:43;;;;;;;;;;;;;;;;;;5055130;28;19929;-65
2022/04/15 07:25:09;;;;;;;;;;;;;;;;;;5063102;28;19932;-65
2022/04/15 07:27:35;;;;;;;;;;;;;;;;;;5067021;28;20349;-65
2022/04/15 07:30:01;;;;;;;;;;;;;;;;;;5067192;28;19935;-64
2022/04/15 07:32:28;;;;;;;;;;;;;;;;;;5062682;28;19940;-65
2022/04/15 07:34:54;;;;;;;;;;;;;;;;;;5063302;28;20004;-64
2022/04/15 07:37:22;;;;;;;;;;;;;;;;;;5065598;28;20110;-64
2022/04/15 07:39:48;;;;;;;;;;;;;;;;;;5063005;28;19986;-64
2022/04/15 07:42:14;;;;;;;;;;;;;;;;;;5065545;28;19931;-62
2022/04/15 07:44:40;;;;;;;;;;;;;;;;;;5067922;28;19928;-64
2022/04/15 07:47:07;;;;;;;;;;;;;;;;;;5068257;28;19932;-62
2022/04/15 07:49:34;;;;;;;;;;;;;;;;;;5066989;28;20207;-64
2022/04/15 07:52:00;;;;;;;;;;;;;;;;;;5060023;28;20370;-63
2022/04/15 07:54:26;;;;;;;;;;;;;;;;;;5060953;28;20266;-63
2022/04/15 07:56:52;;;;;;;;;;;;;;;;;;5062654;28;19932;-63
2022/04/15 07:59:19;;;;;;;;;;;;;;;;;;5066322;28;19929;-64
2022/04/15 08:01:45;;;;;;;;;;;;;;;;;;5065380;28;20015;-64
2022/04/15 08:04:12;;;;;;;;;;;;;;;;;;5064710;28;19944;-63
2022/04/15 08:06:38;;;;;;;;;;;;;;;;;;5063993;28;20392;-63
2022/04/15 08:09:04;;;;;;;;;;;;;;;;;;5064842;28;19939;-63
2022/04/15 08:11:30;;;;;;;;;;;;;;;;;;5064934;28;19925;-64
2022/04/15 08:13:57;;;;;;;;;;;;;;;;;;5063411;28;19929;-63
2022/04/15 08:16:23;;;;;;;;;;;;;;;;;;5065192;28;20237;-64
2022/04/15 08:18:50;;;;;;;;;;;;;;;;;;5061931;28;19924;-64
2022/04/15 08:21:16;;;;;;;;;;;;;;;;;;5065960;28;19929;-63
2022/04/15 08:23:43;;;;;;;;;;;;;;;;;;5068813;28;19924;-63
2022/04/15 08:26:09;;;;;;;;;;;;;;;;;;5071370;28;20472;-63
2022/04/15 08:28:35;;;;;;;;;;;;;;;;;;5086383;22;19928;-64
2022/04/15 08:31:01;;;;;;;;;;;;;;;;;;5065837;28;19936;-65
2022/04/15 08:33:27;;;;;;;;;;;;;;;;;;5060266;28;19936;-66
2022/04/15 08:35:53;;;;;;;;;;;;;;;;;;5064582;28;20389;-65
2022/04/15 08:38:20;;;;;;;;;;;;;;;;;;5068086;28;20400;-64
2022/04/15 08:40:46;;;;;;;;;;;;;;;;;;5059389;28;20313;-64
2022/04/15 08:43:12;;;;;;;;;;;;;;;;;;5063846;28;19935;-64
2022/04/15 08:45:38;;;;;;;;;;;;;;;;;;5063889;28;19935;-65
2022/04/15 08:48:04;;;;;;;;;;;;;;;;;;5058860;28;20901;-64
2022/04/15 08:50:31;;;;;;;;;;;;;;;;;;5055894;28;19979;-64
2022/04/15 08:52:57;;;;;;;;;;;;;;;;;;5062256;28;20003;-65
2022/04/15 08:55:23;;;;;;;;;;;;;;;;;;5056004;28;19929;-64
2022/04/15 08:57:49;;;;;;;;;;;;;;;;;;5060482;28;19939;-65
2022/04/15 09:00:15;;;;;;;;;;;;;;;;;;5057264;28;19935;-64
2022/04/15 09:02:41;;;;;;;;;;;;;;;;;;5066994;28;19929;-64
2022/04/15 09:05:08;;;;;;;;;;;;;;;;;;5062556;28;19932;-64
2022/04/15 09:07:34;;;;;;;;;;;;;;;;;;5057907;28;20313;-64
2022/04/15 09:10:01;;;;;;;;;;;;;;;;;;5058330;28;19924;-64
2022/04/15 09:12:28;;;;;;;;;;;;;;;;;;5064427;28;19929;-63
2022/04/15 09:14:55;;;;;;;;;;;;;;;;;;5064845;28;19935;-66
2022/04/15 09:17:21;;;;;;;;;;;;;;;;;;5060972;28;20420;-68
2022/04/15 09:19:47;;;;;;;;;;;;;;;;;;5063293;28;19952;-68
2022/04/15 09:22:13;;;;;;;;;;;;;;;;;;5063378;28;19931;-67
2022/04/15 09:24:42;;;;;;;;;;;;;;;;;;5058144;28;19925;-68
2022/04/15 09:27:08;;;;;;;;;;;;;;;;;;4362184;28;10000837;-68
2022/04/15 09:29:34;;;;;;;;;;;;;;;;;;5055203;28;19933;-67
2022/04/15 09:32:00;;;;;;;;;;;;;;;;;;5062420;28;20015;-67
2022/04/15 09:34:27;;;;;;;;;;;;;;;;;;5058964;28;20180;-67
2022/04/15 09:36:53;;;;;;;;;;;;;;;;;;5062331;28;19939;-68
2022/04/15 09:39:19;;;;;;;;;;;;;;;;;;5058487;28;20312;-67
2022/04/15 09:41:46;;;;;;;;;;;;;;;;;;5057512;28;19929;-67
2022/04/15 09:44:12;;;;;;;;;;;;;;;;;;5058717;28;20054;-67
2022/04/15 09:46:39;;;;;;;;;;;;;;;;;;5060592;28;19928;-67
2022/04/15 09:49:06;;;;;;;;;;;;;;;;;;5060268;28;20003;-67
2022/04/15 09:51:34;;;;;;;;;;;;;;;;;;5058212;28;19940;-66
2022/04/15 09:54:01;;;;;;;;;;;;;;;;;;5061866;28;19929;-67
2022/04/15 09:56:27;;;;;;;;;;;;;;;;;;5060742;28;19929;-67
2022/04/15 09:58:54;;;;;;;;;;;;;;;;;;5060011;28;19931;-67
2022/04/15 10:01:20;;;;;;;;;;;;;;;;;;5055854;28;19928;-68
2022/04/15 10:03:48;;;;;;;;;;;;;;;;;;5064854;28;20275;-67
2022/04/15 10:06:14;;;;;;;;;;;;;;;;;;5056931;28;19943;-67
2022/04/15 10:08:42;;;;;;;;;;;;;;;;;;5059433;28;19939;-66
2022/04/15 10:11:08;;;;;;;;;;;;;;;;;;5056710;28;19944;-67
2022/04/15 10:13:35;;;;;;;;;;;;;;;;;;5055582;28;20396;-66
2022/04/15 10:16:01;;;;;;;;;;;;;;;;;;5058314;28;20309;-67
2022/04/15 10:18:27;;;;;;;;;;;;;;;;;;5060220;28;19947;-68
2022/04/15 10:20:53;;;;;;;;;;;;;;;;;;5066685;28;19924;-68
2022/04/15 10:23:19;;;;;;;;;;;;;;;;;;5067425;28;19931;-67
2022/04/15 10:25:46;;;;;;;;;;;;;;;;;;5067367;28;19929;-67
2022/04/15 10:28:13;;;;;;;;;;;;;;;;;;5067426;28;20009;-67
2022/04/15 10:30:39;;;;;;;;;;;;;;;;;;5067902;28;20024;-69
2022/04/15 10:33:05;;;;;;;;;;;;;;;;;;5063168;28;19955;-67
2022/04/15 10:35:31;;;;;;;;;;;;;;;;;;5062674;28;19928;-67
2022/04/15 10:37:58;;;;;;;;;;;;;;;;;;5053620;28;19947;-68
2022/04/15 10:40:24;;;;;;;;;;;;;;;;;;5058859;28;19932;-67
2022/04/15 10:42:50;;;;;;;;;;;;;;;;;;5062654;28;19928;-67
2022/04/15 10:45:16;;;;;;;;;;;;;;;;;;5061413;28;20483;-67
2022/04/15 10:47:42;;;;;;;;;;;;;;;;;;5061353;28;20393;-67
2022/04/15 10:50:08;;;;;;;;;;;;;;;;;;5057051;28;19929;-67
2022/04/15 10:52:35;;;;;;;;;;;;;;;;;;5053279;28;19972;-67
2022/04/15 10:55:02;;;;;;;;;;;;;;;;;;5057316;28;19924;-68
2022/04/15 10:57:28;;;;;;;;;;;;;;;;;;5059653;28;19943;-67
2022/04/15 11:02:38;;;;;;;;;;;;;;;;;;5053812;28;19923;-67
2022/04/15 11:05:05;;;;;;;;;;;;;;;;;;5066349;28;20397;-69
2022/04/15 11:07:31;;;;;;;;;;;;;;;;;;5060273;28;20209;-68
2022/04/15 11:09:58;;;;;;;;;;;;;;;;;;5064103;28;19964;-69
2022/04/15 11:12:24;;;;;;;;;;;;;;;;;;5057146;28;20397;-67
2022/04/15 11:14:50;;;;;;;;;;;;;;;;;;5055931;28;19934;-67
2022/04/15 11:17:16;;;;;;;;;;;;;;;;;;5054810;28;20377;-68
2022/04/15 11:19:42;;;;;;;;;;;;;;;;;;5059580;28;19925;-67
2022/04/15 11:22:08;;;;;;;;;;;;;;;;;;5053744;28;19924;-68
2022/04/15 11:24:38;;;;;;;;;;;;;;;;;;5056011;28;19951;-67
2022/04/15 11:27:04;;;;;;;;;;;;;;;;;;5052368;28;19928;-68
2022/04/15 11:29:30;;;;;;;;;;;;;;;;;;5051941;28;19936;-67
2022/04/15 11:31:56;;;;;;;;;;;;;;;;;;5057129;28;19932;-68
2022/04/15 11:34:22;;;;;;;;;;;;;;;;;;5059609;28;19924;-68
2022/04/15 11:36:49;;;;;;;;;;;;;;;;;;5055021;28;19928;-67
2022/04/15 11:39:15;;;;;;;;;;;;;;;;;;5050909;28;19936;-67
2022/04/15 11:41:41;;;;;;;;;;;;;;;;;;5051106;28;20157;-68
2022/04/15 11:44:10;;;;;;;;;;;;;;;;;;5055813;28;19925;-67
2022/04/15 11:46:36;;;;;;;;;;;;;;;;;;5055650;28;19928;-67
2022/04/15 11:49:04;;;;;;;;;;;;;;;;;;5056398;28;19933;-68
2022/04/15 11:51:30;;;;;;;;;;;;;;;;;;5058470;28;20012;-67
2022/04/15 11:53:57;;;;;;;;;;;;;;;;;;5054756;28;19935;-67
2022/04/15 11:56:23;;;;;;;;;;;;;;;;;;5058630;28;19936;-68
2022/04/15 11:58:49;;;;;;;;;;;;;;;;;;5068784;28;19928;-67
2022/04/15 12:01:16;;;;;;;;;;;;;;;;;;5070500;28;19928;-68
2022/04/15 12:03:45;;;;;;;;;;;;;;;;;;5072074;28;19929;-68
2022/04/15 12:06:11;;;;;;;;;;;;;;;;;;5071135;28;20344;-68
2022/04/15 12:08:37;;;;;;;;;;;;;;;;;;5066278;28;19972;-68
2022/04/15 12:11:04;;;;;;;;;;;;;;;;;;5071467;28;20510;-67
2022/04/15 12:13:30;;;;;;;;;;;;;;;;;;5069924;28;19932;-68
2022/04/15 12:15:56;;;;;;;;;;;;;;;;;;5058678;28;19944;-67
2022/04/15 12:18:22;;;;;;;;;;;;;;;;;;5062376;28;19929;-68
2022/04/15 12:20:48;;;;;;;;;;;;;;;;;;5070305;28;19944;-67
2022/04/15 12:23:15;;;;;;;;;;;;;;;;;;5069138;28;19928;-68
2022/04/15 12:31:09;;;;;;;;;;;;;;;;;;5059497;28;20584;-67
2022/04/15 12:33:35;;;;;;;;;;;;;;;;;;5066206;28;20576;-68
2022/04/15 12:36:02;;;;;;;;;;;;;;;;;;5060786;28;19936;-67
2022/04/15 12:38:28;;;;;;;;;;;;;;;;;;5069796;28;19929;-67
2022/04/15 12:40:54;;;;;;;;;;;;;;;;;;5069106;28;20333;-68
2022/04/15 12:43:20;;;;;;;;;;;;;;;;;;5068982;28;20011;-69
2022/04/15 12:45:46;;;;;;;;;;;;;;;;;;5068688;28;20335;-68
2022/04/15 12:48:12;;;;;;;;;;;;;;;;;;5063437;28;20029;-67
2022/04/15 12:50:39;;;;;;;;;;;;;;;;;;5064998;28;19928;-67
2022/04/15 12:53:06;;;;;;;;;;;;;;;;;;5060119;28;19924;-67
2022/04/15 12:55:32;;;;;;;;;;;;;;;;;;5069362;28;19928;-68
2022/04/15 12:57:58;;;;;;;;;;;;;;;;;;5069696;28;20474;-68
2022/04/15 13:00:24;;;;;;;;;;;;;;;;;;5068814;28;20474;-68
2022/04/15 13:02:50;;;;;;;;;;;;;;;;;;5068336;28;19939;-68
2022/04/15 13:05:16;;;;;;;;;;;;;;;;;;5065361;28;19935;-67
2022/04/15 13:07:43;;;;;;;;;;;;;;;;;;5061311;28;19928;-67
2022/04/15 13:10:09;;;;;;;;;;;;;;;;;;5067918;28;20396;-68
2022/04/15 13:12:35;;;;;;;;;;;;;;;;;;5057252;28;19932;-68
2022/04/15 13:15:01;;;;;;;;;;;;;;;;;;5055670;28;19987;-67
2022/04/15 13:17:28;;;;;;;;;;;;;;;;;;5067276;28;19928;-68
2022/04/15 13:19:54;;;;;;;;;;;;;;;;;;5063569;28;19959;-68
2022/04/15 13:22:20;;;;;;;;;;;;;;;;;;5069516;28;19928;-67
2022/04/15 13:24:46;;;;;;;;;;;;;;;;;;5062918;28;20152;-67
2022/04/15 13:27:12;;;;;;;;;;;;;;;;;;5060950;28;19932;-67
2022/04/15 13:29:38;;;;;;;;;;;;;;;;;;5062755;28;20304;-67
2022/04/15 13:32:04;;;;;;;;;;;;;;;;;;5056791;28;20396;-67
2022/04/15 13:34:33;;;;;;;;;;;;;;;;;;5059820;28;19928;-68
2022/04/15 13:36:59;;;;;;;;;;;;;;;;;;5066715;28;19954;-67
2022/04/15 13:39:25;;;;;;;;;;;;;;;;;;5060247;28;20281;-67
2022/04/15 13:41:51;;;;;;;;;;;;;;;;;;5059492;28;19928;-68
2022/04/15 13:44:17;;;;;;;;;;;;;;;;;;5063031;28;19940;-67
2022/04/15 13:46:43;;;;;;;;;;;;;;;;;;5056060;28;19936;-68
2022/04/15 13:49:09;;;;;;;;;;;;;;;;;;5065216;28;19932;-67
2022/04/15 13:51:36;;;;;;;;;;;;;;;;;;5054693;28;19924;-67
2022/04/15 13:56:46;;;;;;;;;;;;;;;;;;5054490;28;19924;-67
2022/04/15 13:59:12;;;;;;;;;;;;;;;;;;5060445;28;19924;-68
2022/04/15 14:01:39;;;;;;;;;;;;;;;;;;5057019;28;20310;-66
2022/04/15 14:04:08;;;;;;;;;;;;;;;;;;5056858;28;20363;-67
2022/04/15 14:06:34;;;;;;;;;;;;;;;;;;5059986;28;19928;-67
2022/04/15 14:09:00;;;;;;;;;;;;;;;;;;5057091;28;20337;-67
2022/04/15 14:11:26;;;;;;;;;;;;;;;;;;5058770;28;19939;-67
2022/04/15 14:13:53;;;;;;;;;;;;;;;;;;5055107;28;19939;-67
2022/04/15 14:16:19;;;;;;;;;;;;;;;;;;5063237;28;20036;-67
2022/04/15 14:18:45;;;;;;;;;;;;;;;;;;5058814;28;19928;-67
2022/04/15 14:21:12;;;;;;;;;;;;;;;;;;5061634;28;19936;-67
2022/04/15 14:23:38;;;;;;;;;;;;;;;;;;5060894;28;19971;-67
2022/04/15 14:26:05;;;;;;;;;;;;;;;;;;5061548;28;19925;-67
2022/04/15 14:28:32;;;;;;;;;;;;;;;;;;5054228;28;20507;-67
2022/04/15 14:30:58;;;;;;;;;;;;;;;;;;5099742;22;20381;-77
2022/04/15 14:33:24;;;;;;;;;;;;;;;;;;5099356;28;19931;-76
2022/04/15 14:35:50;;;;;;;;;;;;;;;;;;5100334;28;19935;-76
2022/04/15 14:38:17;;;;;;;;;;;;;;;;;;5104516;28;19927;-77
2022/04/15 14:40:43;;;;;;;;;;;;;;;;;;5100285;28;19924;-76
2022/04/15 14:43:09;;;;;;;;;;;;;;;;;;5101238;28;19934;-76
2022/04/15 14:45:35;;;;;;;;;;;;;;;;;;5100646;28;20466;-76
2022/04/15 14:48:02;;;;;;;;;;;;;;;;;;5099590;27;20358;-75
2022/04/15 14:50:28;;;;;;;;;;;;;;;;;;5102716;28;19972;-76
2022/04/15 14:52:54;;;;;;;;;;;;;;;;;;5104040;28;19932;-76
2022/04/15 14:55:21;;;;;;;;;;;;;;;;;;5095482;28;20354;-75
2022/04/15 14:57:47;;;;;;;;;;;;;;;;;;5092808;28;19953;-76
2022/04/15 15:00:13;;;;;;;;;;;;;;;;;;5113693;28;20029;-76
2022/04/15 15:02:39;;;;;;;;;;;;;;;;;;5113517;28;20201;-75
2022/04/15 15:05:08;;;;;;;;;;;;;;;;;;5101585;28;20303;-76
2022/04/15 15:07:34;;;;;;;;;;;;;;;;;;5101649;28;19928;-75
2022/04/15 15:10:00;;;;;;;;;;;;;;;;;;5101125;28;20060;-76
2022/04/15 15:12:27;;;;;;;;;;;;;;;;;;5103632;28;19934;-74
2022/04/15 15:14:54;;;;;;;;;;;;;;;;;;5098704;28;19935;-74
2022/04/15 15:17:20;;;;;;;;;;;;;;;;;;5099171;28;19932;-77
2022/04/15 15:19:46;;;;;;;;;;;;;;;;;;5103437;28;20473;-77
2022/04/15 15:22:13;;;;;;;;;;;;;;;;;;5104656;28;20003;-76
2022/04/15 15:30:07;;;;;;;;;;;;;;;;;;5102031;28;20053;-76
2022/04/15 15:32:33;;;;;;;;;;;;;;;;;;5098013;28;19947;-75
2022/04/15 15:34:59;;;;;;;;;;;;;;;;;;5107599;28;19939;-76
2022/04/15 15:37:27;;;;;;;;;;;;;;;;;;5095813;28;19951;-73
2022/04/15 15:39:53;;;;;;;;;;;;;;;;;;5091035;28;19978;-75
2022/04/15 15:42:20;;;;;;;;;;;;;;;;;;5108249;28;19934;-78
2022/04/15 15:44:46;;;;;;;;;;;;;;;;;;5109071;28;19966;-78
2022/04/15 15:47:12;;;;;;;;;;;;;;;;;;5108714;28;20406;-78
2022/04/15 15:49:38;;;;;;;;;;;;;;;;;;5099038;28;19944;-76
2022/04/15 15:52:04;;;;;;;;;;;;;;;;;;5098879;28;20318;-77
2022/04/15 15:54:30;;;;;;;;;;;;;;;;;;5101582;28;20492;-76
2022/04/15 15:56:57;;;;;;;;;;;;;;;;;;5101259;28;20453;-77
2022/04/15 15:59:23;;;;;;;;;;;;;;;;;;5091453;28;19927;-76
2022/04/15 16:01:49;;;;;;;;;;;;;;;;;;5105258;28;19932;-77
2022/04/15 16:04:15;;;;;;;;;;;;;;;;;;5104510;27;19935;-77
2022/04/15 16:06:42;;;;;;;;;;;;;;;;;;5099116;28;20312;-76
2022/04/15 16:09:08;;;;;;;;;;;;;;;;;;5108447;28;20241;-75
2022/04/15 16:11:34;;;;;;;;;;;;;;;;;;5106180;28;20398;-74
2022/04/15 16:14:00;;;;;;;;;;;;;;;;;;5096029;28;19932;-74
2022/04/15 16:16:26;;;;;;;;;;;;;;;;;;5102885;28;19929;-75
2022/04/15 16:18:52;;;;;;;;;;;;;;;;;;5106429;27;19927;-77
2022/04/15 16:21:18;;;;;;;;;;;;;;;;;;5107428;27;20024;-75
2022/04/15 16:23:45;;;;;;;;;;;;;;;;;;5115920;27;20418;-77
2022/04/15 16:26:11;;;;;;;;;;;;;;;;;;5104450;27;19928;-76
2022/04/15 16:28:37;;;;;;;;;;;;;;;;;;5099474;28;20034;-76
2022/04/15 16:31:04;;;;;;;;;;;;;;;;;;5115501;28;19928;-76
2022/04/15 16:33:30;;;;;;;;;;;;;;;;;;5113902;28;19942;-77
2022/04/15 16:35:56;;;;;;;;;;;;;;;;;;5105580;28;19931;-71
2022/04/15 16:38:22;;;;;;;;;;;;;;;;;;5108329;27;19924;-77
2022/04/15 16:40:49;;;;;;;;;;;;;;;;;;5105822;28;19927;-77
2022/04/15 16:43:15;;;;;;;;;;;;;;;;;;5105046;28;19992;-74
2022/04/15 16:45:42;;;;;;;;;;;;;;;;;;5096586;28;19928;-75
2022/04/15 16:48:08;;;;;;;;;;;;;;;;;;5104501;28;19927;-78
2022/04/15 16:50:34;;;;;;;;;;;;;;;;;;5102691;28;19938;-75
2022/04/15 16:53:00;;;;;;;;;;;;;;;;;;5087124;28;19943;-74
2022/04/15 17:01:09;;;;;;;;;;;;;;;;;;5045714;28;19924;-75